createdAt,value
2023-03-16T00:02:20.649Z,5.30
2023-03-16T00:04:48.396Z,5.43
2023-03-16T00:07:15.844Z,5.68
2023-03-16T00:09:43.386Z,5.57
2023-03-16T00:12:19.719Z,4.95
2023-03-16T00:14:48.418Z,4.90
2023-03-16T00:17:19.428Z,5.10
2023-03-16T00:19:54.973Z,5.10
2023-03-16T00:24:56.949Z,5.78
2023-03-16T00:27:25.810Z,5.55
2023-03-16T00:29:57.186Z,4.85
2023-03-16T00:32:28.389Z,5.68
2023-03-16T00:34:56.239Z,5.85
2023-03-16T00:37:24.905Z,5.35
2023-03-16T00:39:56.212Z,6.75
2023-03-16T00:42:27.594Z,4.85
2023-03-16T00:44:57.730Z,5.45
2023-03-16T00:47:28.503Z,5.28
2023-03-16T00:49:56.458Z,5.85
2023-03-16T00:52:24.742Z,5.40
2023-03-16T00:54:53.133Z,5.12
2023-03-16T00:57:23.134Z,5.68
2023-03-16T00:59:50.965Z,5.53
2023-03-16T01:02:20.039Z,5.35
2023-03-16T01:04:49.652Z,5.95
2023-03-16T01:07:17.081Z,6.03
2023-03-16T01:09:44.551Z,5.20
2023-03-16T01:12:15.972Z,6.03
2023-03-16T01:14:47.870Z,5.60
2023-03-16T01:17:17.665Z,6.22
2023-03-16T01:19:45.926Z,6.20
2023-03-16T01:22:13.992Z,5.75
2023-03-16T01:24:42.861Z,6.47
2023-03-16T01:27:10.267Z,5.47
2023-03-16T01:29:38.500Z,5.62
2023-03-16T01:32:07.291Z,7.35
2023-03-16T01:34:35.221Z,6.03
2023-03-16T01:37:02.952Z,5.97
2023-03-16T01:39:30.820Z,6.10
2023-03-16T01:41:58.283Z,5.97
2023-03-16T01:44:36.080Z,5.85
2023-03-16T01:47:04.034Z,5.85
2023-03-16T01:49:36.750Z,5.20
2023-03-16T01:52:12.653Z,6.68
2023-03-16T01:57:15.665Z,5.32
2023-03-16T02:00:12.180Z,5.82
2023-03-16T02:02:43.723Z,5.75
2023-03-16T02:05:17.963Z,6.03
2023-03-16T02:07:50.045Z,5.12
2023-03-16T02:10:19.739Z,5.50
2023-03-16T02:12:47.441Z,6.18
2023-03-16T02:15:15.287Z,6.07
2023-03-16T02:17:44.367Z,6.15
2023-03-16T02:20:16.272Z,6.35
2023-03-16T02:22:49.694Z,5.80
2023-03-16T02:25:18.694Z,6.12
2023-03-16T02:28:17.622Z,5.97
2023-03-16T02:30:47.075Z,5.70
2023-03-16T02:33:16.616Z,6.03
2023-03-16T02:35:44.541Z,6.05
2023-03-16T02:38:11.962Z,6.37
2023-03-16T02:40:43.874Z,5.90
2023-03-16T02:43:15.265Z,6.40
2023-03-16T02:45:51.295Z,5.45
2023-03-16T02:48:46.820Z,7.00
2023-03-16T02:51:14.714Z,6.05
2023-03-16T02:53:42.488Z,6.22
2023-03-16T02:56:10.044Z,5.85
2023-03-16T02:58:37.956Z,6.55
2023-03-16T03:01:06.279Z,6.75
2023-03-16T03:03:34.647Z,6.62
2023-03-16T03:06:03.206Z,6.30
2023-03-16T03:08:32.816Z,6.32
2023-03-16T03:11:00.410Z,6.45
2023-03-16T03:13:28.131Z,7.03
2023-03-16T03:15:55.661Z,6.15
2023-03-16T03:18:25.272Z,7.10
2023-03-16T03:20:53.747Z,7.28
2023-03-16T03:23:21.171Z,6.62
2023-03-16T03:25:48.548Z,6.78
2023-03-16T03:28:16.516Z,6.82
2023-03-16T03:30:45.278Z,6.43
2023-03-16T03:33:13.031Z,7.28
2023-03-16T03:35:42.136Z,7.57
2023-03-16T03:38:10.041Z,6.57
2023-03-16T03:40:37.764Z,6.25
2023-03-16T03:43:06.413Z,7.07
2023-03-16T03:45:34.709Z,6.70
2023-03-16T03:48:02.221Z,7.50
2023-03-16T03:50:30.218Z,7.30
2023-03-16T03:52:58.036Z,7.12
2023-03-16T03:55:25.940Z,8.02
2023-03-16T03:57:53.631Z,6.50
2023-03-16T04:00:22.032Z,7.50
2023-03-16T04:02:50.131Z,7.53
2023-03-16T04:05:17.978Z,7.22
2023-03-16T04:07:45.967Z,7.32
2023-03-16T04:10:14.539Z,7.07
2023-03-16T04:12:42.012Z,7.22
2023-03-16T04:15:11.151Z,7.50
2023-03-16T04:17:39.988Z,8.10
2023-03-16T04:20:14.388Z,8.45
2023-03-16T04:22:42.818Z,8.18
2023-03-16T04:25:11.650Z,8.50
2023-03-16T04:27:39.361Z,8.00
2023-03-16T04:30:12.049Z,7.65
2023-03-16T04:32:41.678Z,8.30
2023-03-16T04:35:10.811Z,7.78
2023-03-16T04:37:39.351Z,8.13
2023-03-16T04:40:16.234Z,7.85
2023-03-16T04:42:45.947Z,8.65
2023-03-16T04:45:15.769Z,9.05
2023-03-16T04:47:43.695Z,8.60
2023-03-16T04:50:12.284Z,8.65
2023-03-16T04:52:41.231Z,8.40
2023-03-16T04:55:09.085Z,9.48
2023-03-16T04:57:37.691Z,8.73
2023-03-16T05:00:11.807Z,8.88
2023-03-16T05:02:40.187Z,9.23
2023-03-16T05:05:08.058Z,8.00
2023-03-16T05:07:36.147Z,9.07
2023-03-16T05:10:04.072Z,8.30
2023-03-16T05:12:31.532Z,8.27
2023-03-16T05:14:59.492Z,8.65
2023-03-16T05:17:27.808Z,9.10
2023-03-16T05:19:55.463Z,9.23
2023-03-16T05:22:23.563Z,8.52
2023-03-16T05:24:53.477Z,8.93
2023-03-16T05:27:21.651Z,8.95
2023-03-16T05:29:49.139Z,9.57
2023-03-16T05:32:17.187Z,8.63
2023-03-16T05:34:46.135Z,8.50
2023-03-16T05:37:13.605Z,9.65
2023-03-16T05:39:41.310Z,9.15
2023-03-16T05:42:08.800Z,9.05
2023-03-16T05:44:37.428Z,8.75
2023-03-16T05:47:05.397Z,9.50
2023-03-16T05:49:33.764Z,8.80
2023-03-16T05:52:01.483Z,9.43
2023-03-16T05:54:30.406Z,9.15
2023-03-16T05:56:57.907Z,9.02
2023-03-16T05:59:25.582Z,8.70
2023-03-16T06:01:53.582Z,9.48
2023-03-16T06:04:21.878Z,8.93
2023-03-16T06:06:49.472Z,8.93
2023-03-16T06:09:17.309Z,8.65
2023-03-16T06:11:45.042Z,8.80
2023-03-16T06:14:14.621Z,8.77
2023-03-16T06:16:42.344Z,8.82
2023-03-16T06:19:11.161Z,9.05
2023-03-16T06:21:39.053Z,8.68
2023-03-16T06:24:09.216Z,8.70
2023-03-16T06:26:37.358Z,9.55
2023-03-16T06:29:05.876Z,8.90
2023-03-16T06:31:34.230Z,8.70
2023-03-16T06:34:02.698Z,9.23
2023-03-16T06:36:30.760Z,8.32
2023-03-16T06:38:58.629Z,9.82
2023-03-16T06:41:26.501Z,8.82
2023-03-16T06:43:54.272Z,9.60
2023-03-16T06:46:21.775Z,8.65
2023-03-16T06:48:49.537Z,8.95
2023-03-16T06:51:17.305Z,9.05
2023-03-16T06:53:45.442Z,9.00
2023-03-16T06:56:13.664Z,9.55
2023-03-16T06:58:41.824Z,9.18
2023-03-16T07:01:09.428Z,9.15
2023-03-16T07:03:37.298Z,9.00
2023-03-16T07:06:06.102Z,9.15
2023-03-16T07:08:33.561Z,9.30
2023-03-16T07:11:01.539Z,8.95
2023-03-16T07:13:30.193Z,10.05
2023-03-16T07:15:58.088Z,9.20
2023-03-16T07:18:26.246Z,9.80
2023-03-16T07:20:54.797Z,9.23
2023-03-16T07:23:24.852Z,10.02
2023-03-16T07:25:53.391Z,10.18
2023-03-16T07:28:21.170Z,9.60
2023-03-16T07:31:02.967Z,9.73
2023-03-16T07:33:33.813Z,9.02
2023-03-16T07:36:04.547Z,9.80
2023-03-16T07:38:34.042Z,9.32
2023-03-16T07:41:02.512Z,8.93
2023-03-16T07:43:29.950Z,9.23
2023-03-16T07:45:57.701Z,9.80
2023-03-16T07:48:26.061Z,8.80
2023-03-16T07:50:54.271Z,9.35
2023-03-16T07:53:22.733Z,9.43
2023-03-16T07:55:50.921Z,8.95
2023-03-16T07:58:18.495Z,9.60
2023-03-16T08:00:46.425Z,9.88
2023-03-16T08:03:14.189Z,9.23
2023-03-16T08:05:41.785Z,9.20
2023-03-16T08:08:12.036Z,10.32
2023-03-16T08:10:39.896Z,9.32
2023-03-16T08:13:08.357Z,9.90
2023-03-16T08:15:36.301Z,8.75
2023-03-16T08:18:04.288Z,8.55
2023-03-16T08:20:32.148Z,8.68
2023-03-16T08:22:59.912Z,8.05
2023-03-16T08:25:28.100Z,8.18
2023-03-16T08:27:58.271Z,8.35
2023-03-16T08:30:27.104Z,8.90
2023-03-16T08:32:55.490Z,8.70
2023-03-16T08:35:23.228Z,8.50
2023-03-16T08:37:50.846Z,7.03
2023-03-16T08:40:18.963Z,7.35
2023-03-16T08:42:50.087Z,7.22
2023-03-16T08:45:20.003Z,7.50
2023-03-16T08:47:47.499Z,7.40
2023-03-16T08:50:15.891Z,7.70
2023-03-16T08:52:43.653Z,7.20
2023-03-16T08:55:11.357Z,7.57
2023-03-16T08:57:39.448Z,6.78
2023-03-16T09:00:14.907Z,7.60
2023-03-16T09:02:44.690Z,6.72
2023-03-16T09:05:14.987Z,7.25
2023-03-16T09:07:42.504Z,7.20
2023-03-16T09:10:13.454Z,8.07
2023-03-16T09:12:41.218Z,6.43
2023-03-16T09:15:10.327Z,6.85
2023-03-16T09:17:39.922Z,6.72
2023-03-16T09:20:21.788Z,5.00
2023-03-16T09:22:58.784Z,6.22
2023-03-16T09:25:26.552Z,4.62
2023-03-16T09:27:54.128Z,5.05
2023-03-16T09:30:21.621Z,5.47
2023-03-16T09:32:50.514Z,5.22
2023-03-16T09:35:18.099Z,5.90
2023-03-16T09:38:01.101Z,5.30
2023-03-16T09:40:33.456Z,5.40
2023-03-16T09:43:07.226Z,4.45
2023-03-16T09:46:02.110Z,4.40
2023-03-16T09:48:30.899Z,4.10
2023-03-16T09:51:00.018Z,4.32
2023-03-16T09:53:32.550Z,4.65
2023-03-16T09:56:06.115Z,4.75
2023-03-16T09:58:34.149Z,4.40
2023-03-16T10:01:28.744Z,4.45
2023-03-16T10:04:13.404Z,6.05
2023-03-16T10:07:10.102Z,5.03
2023-03-16T10:09:41.529Z,5.65
2023-03-16T10:12:09.940Z,4.82
2023-03-16T10:14:45.224Z,4.87
2023-03-16T10:17:28.141Z,5.93
2023-03-16T10:19:58.137Z,4.70
2023-03-16T10:22:37.829Z,5.80
2023-03-16T10:25:24.435Z,5.18
2023-03-16T10:27:52.294Z,5.72
2023-03-16T10:30:19.900Z,5.25
2023-03-16T10:32:48.281Z,4.82
2023-03-16T10:35:28.417Z,5.53
2023-03-16T10:37:57.228Z,5.45
2023-03-16T10:40:24.683Z,4.32
2023-03-16T10:42:52.251Z,4.43
2023-03-16T10:45:25.388Z,4.25
2023-03-16T10:47:52.863Z,4.75
2023-03-16T10:50:25.427Z,4.80
2023-03-16T10:52:56.605Z,4.70
2023-03-16T10:55:32.561Z,4.60
2023-03-16T10:58:01.328Z,4.62
2023-03-16T11:00:43.287Z,4.15
2023-03-16T11:03:28.864Z,4.18
2023-03-16T11:06:02.199Z,4.10
2023-03-16T11:08:34.915Z,3.90
2023-03-16T11:11:09.958Z,3.83
2023-03-16T11:13:38.706Z,3.95
2023-03-16T11:16:39.738Z,4.05
2023-03-16T11:19:29.785Z,3.70
2023-03-16T11:22:19.005Z,3.67
2023-03-16T11:24:54.140Z,3.50
2023-03-16T11:27:26.334Z,3.72
2023-03-16T11:30:01.683Z,3.72
2023-03-16T11:32:36.692Z,3.90
2023-03-16T11:35:22.372Z,3.85
2023-03-16T11:38:14.613Z,3.08
2023-03-16T11:40:50.851Z,3.10
2023-03-16T11:43:42.586Z,3.40
2023-03-16T11:46:11.782Z,2.78
2023-03-16T11:49:01.437Z,2.95
2023-03-16T11:51:28.814Z,2.67
2023-03-16T11:54:07.893Z,2.70
2023-03-16T11:56:40.587Z,2.20
2023-03-16T11:59:22.164Z,2.62
2023-03-16T12:02:15.323Z,2.70
2023-03-16T12:05:22.354Z,2.12
2023-03-16T12:08:24.612Z,2.33
2023-03-16T12:11:10.148Z,2.37
2023-03-16T12:14:00.401Z,2.53
2023-03-16T12:16:48.282Z,2.05
2023-03-16T12:19:45.930Z,1.85
2023-03-16T12:24:43.753Z,2.47
2023-03-16T12:27:17.726Z,2.10
2023-03-16T12:29:55.767Z,2.00
2023-03-16T12:32:40.264Z,2.17
2023-03-16T12:35:19.743Z,1.98
2023-03-16T12:37:50.265Z,1.90
2023-03-16T12:40:41.592Z,1.90
2023-03-16T12:43:12.080Z,1.95
2023-03-16T12:45:53.726Z,1.90
2023-03-16T12:48:27.818Z,1.80
2023-03-16T12:51:00.925Z,1.85
2023-03-16T12:53:52.031Z,1.58
2023-03-16T12:56:26.766Z,1.87
2023-03-16T12:58:56.951Z,2.03
2023-03-16T13:01:38.186Z,2.00
2023-03-16T13:04:14.263Z,2.03
2023-03-16T13:06:49.477Z,2.10
2023-03-16T13:09:22.061Z,1.73
2023-03-16T13:11:50.308Z,1.77
2023-03-16T13:14:34.483Z,2.12
2023-03-16T13:17:16.909Z,1.52
2023-03-16T13:19:46.697Z,1.73
2023-03-16T13:22:17.315Z,1.73
2023-03-16T13:25:10.417Z,1.37
2023-03-16T13:27:39.644Z,1.50
2023-03-16T13:30:33.784Z,1.87
2023-03-16T13:33:21.821Z,1.70
2023-03-16T13:35:51.254Z,1.85
2023-03-16T13:38:28.802Z,2.10
2023-03-16T13:41:01.929Z,1.62
2023-03-16T13:43:32.823Z,1.73
2023-03-16T13:46:00.297Z,1.58
2023-03-16T13:48:27.813Z,1.73
2023-03-16T13:50:59.599Z,1.52
2023-03-16T13:53:32.894Z,2.47
2023-03-16T13:56:04.402Z,1.70
2023-03-16T13:58:35.652Z,1.90
2023-03-16T14:01:05.587Z,1.77
2023-03-16T14:03:38.616Z,1.52
2023-03-16T14:06:07.304Z,1.60
2023-03-16T14:08:35.070Z,1.80
2023-03-16T14:11:03.775Z,1.52
2023-03-16T14:13:36.173Z,1.52
2023-03-16T14:16:13.952Z,1.42
2023-03-16T14:18:52.099Z,1.50
2023-03-16T14:21:23.280Z,1.20
2023-03-16T14:23:57.451Z,1.77
2023-03-16T14:26:25.645Z,1.25
2023-03-16T14:29:16.117Z,1.90
2023-03-16T14:31:44.870Z,1.60
2023-03-16T14:34:39.522Z,2.03
2023-03-16T14:37:17.618Z,1.58
2023-03-16T14:39:46.585Z,2.12
2023-03-16T14:42:19.923Z,1.85
2023-03-16T14:44:48.209Z,1.98
2023-03-16T14:47:22.967Z,1.60
2023-03-16T14:49:51.023Z,1.87
2023-03-16T14:52:25.548Z,1.83
2023-03-16T14:54:55.077Z,1.92
2023-03-16T14:57:22.975Z,2.00
2023-03-16T14:59:50.483Z,1.60
2023-03-16T15:02:21.356Z,1.90
2023-03-16T15:04:49.593Z,1.80
2023-03-16T15:07:23.944Z,1.62
2023-03-16T15:09:53.868Z,1.70
2023-03-16T15:12:24.330Z,1.40
2023-03-16T15:15:10.827Z,1.50
2023-03-16T15:17:38.924Z,1.95
2023-03-16T15:20:07.366Z,1.23
2023-03-16T15:22:37.713Z,1.83
2023-03-16T15:25:36.277Z,2.20
2023-03-16T15:28:11.858Z,1.73
2023-03-16T15:30:40.385Z,1.50
2023-03-16T15:33:09.999Z,1.90
2023-03-16T15:35:37.871Z,1.60
2023-03-16T15:38:11.578Z,1.60
2023-03-16T15:40:39.981Z,1.50
2023-03-16T15:43:12.785Z,1.67
2023-03-16T15:45:40.587Z,2.37
2023-03-16T15:48:10.451Z,1.75
2023-03-16T15:50:39.808Z,1.95
2023-03-16T15:53:30.022Z,1.83
2023-03-16T15:56:10.217Z,1.48
2023-03-16T15:58:41.907Z,1.60
2023-03-16T16:01:27.004Z,1.65
2023-03-16T16:03:56.001Z,2.22
2023-03-16T16:06:24.396Z,2.00
2023-03-16T16:08:52.372Z,2.22
2023-03-16T16:11:29.338Z,1.77
2023-03-16T16:13:57.884Z,1.70
2023-03-16T16:16:29.571Z,1.90
2023-03-16T16:18:57.063Z,2.20
2023-03-16T16:21:29.006Z,1.40
2023-03-16T16:23:56.865Z,1.52
2023-03-16T16:26:29.560Z,1.40
2023-03-16T16:28:59.501Z,2.53
2023-03-16T16:31:28.878Z,2.28
2023-03-16T16:33:57.020Z,1.80
2023-03-16T16:36:25.324Z,2.15
2023-03-16T16:38:56.520Z,7.25
2023-03-16T16:41:27.793Z,5.10
2023-03-16T16:43:56.575Z,4.20
2023-03-16T16:46:27.347Z,3.22
2023-03-16T16:49:01.794Z,7.12
2023-03-16T16:51:30.255Z,4.32
2023-03-16T16:53:59.310Z,5.80
2023-03-16T16:56:29.190Z,3.30
2023-03-16T16:58:57.733Z,7.35
2023-03-16T17:01:33.403Z,10.18
2023-03-16T17:04:02.554Z,8.15
2023-03-16T17:06:30.963Z,5.53
2023-03-16T17:08:58.544Z,4.07
2023-03-16T17:11:30.095Z,2.55
2023-03-16T17:13:59.625Z,2.30
2023-03-16T17:16:32.877Z,3.00
2023-03-16T17:19:01.797Z,3.70
2023-03-16T17:21:31.207Z,11.98
2023-03-16T17:24:00.408Z,7.10
2023-03-16T17:26:34.449Z,5.62
2023-03-16T17:29:06.422Z,3.20
2023-03-16T17:31:39.671Z,3.05
2023-03-16T17:34:16.779Z,2.75
2023-03-16T17:36:46.966Z,2.85
2023-03-16T17:39:21.166Z,3.90
2023-03-16T17:41:59.675Z,3.83
2023-03-16T17:44:32.660Z,3.60
2023-03-16T17:47:01.452Z,4.43
2023-03-16T17:49:30.822Z,4.07
2023-03-16T17:51:59.085Z,4.43
2023-03-16T17:54:28.912Z,5.32
2023-03-16T17:57:00.414Z,4.60
2023-03-16T17:59:31.562Z,4.50
2023-03-16T18:02:00.310Z,3.67
2023-03-16T18:04:30.391Z,3.85
2023-03-16T18:06:58.840Z,4.05
2023-03-16T18:09:29.223Z,4.45
2023-03-16T18:11:58.223Z,4.57
2023-03-16T18:14:35.984Z,5.28
2023-03-16T18:17:31.397Z,5.55
2023-03-16T18:20:00.924Z,5.87
2023-03-16T18:22:32.839Z,5.00
2023-03-16T18:25:23.397Z,4.82
2023-03-16T18:27:52.533Z,4.25
2023-03-16T18:30:22.189Z,4.28
2023-03-16T18:32:52.467Z,3.42
2023-03-16T18:35:21.936Z,3.45
2023-03-16T18:37:53.480Z,4.07
2023-03-16T18:40:27.239Z,3.40
2023-03-16T18:42:56.274Z,3.20
2023-03-16T18:45:26.532Z,3.75
2023-03-16T18:47:57.143Z,3.50
2023-03-16T18:50:31.384Z,3.17
2023-03-16T18:53:00.016Z,3.60
2023-03-16T18:55:29.685Z,3.58
2023-03-16T18:57:59.211Z,3.97
2023-03-16T19:00:30.462Z,3.90
2023-03-16T19:03:03.675Z,4.25
2023-03-16T19:05:39.776Z,4.68
2023-03-16T19:08:12.167Z,4.75
2023-03-16T19:10:48.187Z,4.40
2023-03-16T19:13:23.373Z,4.82
2023-03-16T19:15:56.710Z,5.75
2023-03-16T19:18:27.796Z,5.57
2023-03-16T19:20:57.431Z,5.10
2023-03-16T19:23:34.313Z,4.75
2023-03-16T19:26:05.245Z,4.25
2023-03-16T19:28:40.115Z,5.80
2023-03-16T19:31:22.652Z,5.53
2023-03-16T19:33:53.940Z,5.37
2023-03-16T19:36:25.360Z,4.47
2023-03-16T19:38:55.259Z,4.68
2023-03-16T19:41:32.449Z,4.62
2023-03-16T19:44:08.826Z,4.80
2023-03-16T19:49:11.946Z,6.20
2023-03-16T19:51:40.987Z,6.90
2023-03-16T19:54:22.492Z,6.20
2023-03-16T19:56:53.014Z,5.60
2023-03-16T19:59:27.960Z,5.78
2023-03-16T20:01:57.447Z,6.55
2023-03-16T20:04:27.900Z,6.55
2023-03-16T20:06:57.799Z,6.62
2023-03-16T20:09:27.886Z,6.03
2023-03-16T20:11:56.819Z,6.60
2023-03-16T20:14:31.190Z,5.75
2023-03-16T20:17:02.119Z,6.05
2023-03-16T20:19:32.159Z,6.30
2023-03-16T20:22:01.553Z,6.32
2023-03-16T20:24:30.400Z,5.50
2023-03-16T20:27:09.435Z,6.10
2023-03-16T20:29:41.812Z,5.10
2023-03-16T20:32:23.071Z,5.40
2023-03-16T20:34:54.691Z,5.18
2023-03-16T20:37:31.345Z,5.60
2023-03-16T20:40:05.218Z,5.18
2023-03-16T20:42:35.398Z,5.55
2023-03-16T20:45:19.957Z,4.97
2023-03-16T20:47:49.435Z,5.25
2023-03-16T20:50:21.610Z,5.43
2023-03-16T20:52:50.603Z,4.95
2023-03-16T20:55:21.843Z,5.03
2023-03-16T20:57:52.047Z,5.00
2023-03-16T21:00:38.251Z,5.57
2023-03-16T21:03:17.600Z,5.87
2023-03-16T21:05:46.556Z,4.78
2023-03-16T21:08:16.728Z,5.32
2023-03-16T21:10:46.412Z,5.50
2023-03-16T21:13:21.675Z,5.10
2023-03-16T21:15:52.645Z,5.95
2023-03-16T21:18:23.013Z,6.00
2023-03-16T21:20:52.097Z,5.30
2023-03-16T21:23:22.614Z,5.60
2023-03-16T21:25:53.436Z,4.65
2023-03-16T21:28:23.295Z,5.30
2023-03-16T21:30:53.429Z,4.68
2023-03-16T21:33:37.617Z,5.05
2023-03-16T21:36:08.243Z,5.07
2023-03-16T21:38:36.678Z,5.68
2023-03-16T21:41:04.353Z,5.82
2023-03-16T21:43:32.172Z,4.55
2023-03-16T21:46:00.026Z,4.93
2023-03-16T21:48:37.125Z,5.12
2023-03-16T21:51:13.586Z,5.40
2023-03-16T21:53:41.155Z,5.53
2023-03-16T21:56:13.035Z,5.00
2023-03-16T21:58:40.505Z,4.93
2023-03-16T22:01:39.448Z,4.93
2023-03-16T22:04:17.381Z,4.93
2023-03-16T22:06:46.005Z,4.20
2023-03-16T22:09:18.737Z,4.25
2023-03-16T22:11:46.205Z,4.60
2023-03-16T22:14:14.004Z,4.40
2023-03-16T22:16:41.596Z,4.90
2023-03-16T22:19:12.153Z,4.72
2023-03-16T22:21:41.979Z,4.20
2023-03-16T22:24:18.732Z,4.85
2023-03-16T22:26:48.888Z,4.62
2023-03-16T22:29:33.429Z,4.97
2023-03-16T22:32:04.288Z,4.20
2023-03-16T22:34:48.720Z,4.95
2023-03-16T22:37:23.123Z,4.62
2023-03-16T22:39:51.137Z,5.03
2023-03-16T22:42:26.990Z,5.37
2023-03-16T22:44:55.435Z,4.75
2023-03-16T22:47:26.168Z,4.47
2023-03-16T22:49:53.955Z,4.32
2023-03-16T22:52:25.264Z,4.18
2023-03-16T22:54:53.073Z,4.80
2023-03-16T22:57:20.594Z,5.32
2023-03-16T22:59:48.397Z,5.20
2023-03-16T23:02:16.292Z,5.40
2023-03-16T23:04:44.477Z,4.07
2023-03-16T23:07:13.532Z,5.10
2023-03-16T23:09:41.377Z,4.32
2023-03-16T23:12:14.954Z,4.37
2023-03-16T23:14:43.381Z,4.57
2023-03-16T23:17:28.957Z,4.57
2023-03-16T23:19:56.640Z,5.25
2023-03-16T23:22:24.034Z,4.45
2023-03-16T23:24:51.408Z,4.95
2023-03-16T23:27:21.962Z,4.40
2023-03-16T23:29:49.567Z,4.45
2023-03-16T23:32:17.235Z,4.78
2023-03-16T23:34:46.386Z,4.05
2023-03-16T23:37:13.856Z,4.57
2023-03-16T23:39:41.250Z,4.43
2023-03-16T23:42:09.197Z,4.37
2023-03-16T23:44:36.587Z,4.35
2023-03-16T23:47:04.016Z,3.87
2023-03-16T23:49:35.853Z,5.12
2023-03-16T23:52:03.949Z,4.70
2023-03-16T23:54:32.679Z,4.62
2023-03-16T23:57:00.127Z,5.22
2023-03-16T23:59:27.834Z,5.47
